sensor_id;sensor_type;location;lat;lon;timestamp;P1;durP1;ratioP1;P2;durP2;ratioP2
76833;SDS011;65793;42.678;23.332;2023-02-25T00:02:48;31.98;;;20.15;;
76833;SDS011;65793;42.678;23.332;2023-02-25T00:05:49;34.05;;;19.95;;
76833;SDS011;65793;42.678;23.332;2023-02-25T00:08:51;39.92;;;23.98;;
76833;SDS011;65793;42.678;23.332;2023-02-25T00:11:53;33.58;;;21.50;;
76833;SDS011;65793;42.678;23.332;2023-02-25T00:14:54;40.30;;;23.10;;
76833;SDS011;65793;42.678;23.332;2023-02-25T00:17:54;32.22;;;21.42;;
76833;SDS011;65793;42.678;23.332;2023-02-25T00:20:55;26.27;;;18.33;;
76833;SDS011;65793;42.678;23.332;2023-02-25T00:23:57;35.42;;;21.90;;
76833;SDS011;65793;42.678;23.332;2023-02-25T00:26:58;38.95;;;21.67;;
76833;SDS011;65793;42.678;23.332;2023-02-25T00:29:58;33.38;;;21.23;;
76833;SDS011;65793;42.678;23.332;2023-02-25T00:32:59;27.05;;;18.42;;
76833;SDS011;65793;42.678;23.332;2023-02-25T00:35:59;28.80;;;18.73;;
76833;SDS011;65793;42.678;23.332;2023-02-25T00:42:05;35.25;;;21.92;;
76833;SDS011;65793;42.678;23.332;2023-02-25T00:45:06;28.52;;;18.20;;
76833;SDS011;65793;42.678;23.332;2023-02-25T00:48:08;35.90;;;20.92;;
76833;SDS011;65793;42.678;23.332;2023-02-25T00:51:09;29.55;;;17.95;;
76833;SDS011;65793;42.678;23.332;2023-02-25T00:54:13;28.55;;;19.08;;
76833;SDS011;65793;42.678;23.332;2023-02-25T00:57:13;22.70;;;17.88;;
76833;SDS011;65793;42.678;23.332;2023-02-25T01:00:14;29.35;;;17.50;;
76833;SDS011;65793;42.678;23.332;2023-02-25T01:03:15;29.67;;;18.98;;
76833;SDS011;65793;42.678;23.332;2023-02-25T01:06:16;30.90;;;18.13;;
76833;SDS011;65793;42.678;23.332;2023-02-25T01:09:18;31.98;;;19.33;;
76833;SDS011;65793;42.678;23.332;2023-02-25T01:12:18;28.75;;;18.58;;
76833;SDS011;65793;42.678;23.332;2023-02-25T01:15:19;29.60;;;18.67;;
76833;SDS011;65793;42.678;23.332;2023-02-25T01:18:19;23.10;;;16.67;;
76833;SDS011;65793;42.678;23.332;2023-02-25T01:21:20;30.33;;;19.40;;
76833;SDS011;65793;42.678;23.332;2023-02-25T01:24:25;29.65;;;17.98;;
76833;SDS011;65793;42.678;23.332;2023-02-25T01:27:26;28.25;;;14.80;;
76833;SDS011;65793;42.678;23.332;2023-02-25T01:30:27;31.98;;;18.52;;
76833;SDS011;65793;42.678;23.332;2023-02-25T01:33:27;28.13;;;17.13;;
76833;SDS011;65793;42.678;23.332;2023-02-25T01:36:29;34.83;;;19.35;;
76833;SDS011;65793;42.678;23.332;2023-02-25T01:39:32;28.73;;;17.48;;
76833;SDS011;65793;42.678;23.332;2023-02-25T01:42:32;29.70;;;18.17;;
76833;SDS011;65793;42.678;23.332;2023-02-25T01:45:33;28.63;;;17.38;;
76833;SDS011;65793;42.678;23.332;2023-02-25T01:48:40;28.92;;;16.58;;
76833;SDS011;65793;42.678;23.332;2023-02-25T01:51:40;26.00;;;16.27;;
76833;SDS011;65793;42.678;23.332;2023-02-25T01:54:44;22.30;;;15.75;;
76833;SDS011;65793;42.678;23.332;2023-02-25T01:57:47;26.38;;;14.73;;
76833;SDS011;65793;42.678;23.332;2023-02-25T02:00:48;27.75;;;16.83;;
76833;SDS011;65793;42.678;23.332;2023-02-25T02:03:49;25.30;;;15.23;;
76833;SDS011;65793;42.678;23.332;2023-02-25T02:06:51;25.70;;;14.82;;
76833;SDS011;65793;42.678;23.332;2023-02-25T02:09:53;26.58;;;16.75;;
76833;SDS011;65793;42.678;23.332;2023-02-25T02:12:54;22.67;;;14.52;;
76833;SDS011;65793;42.678;23.332;2023-02-25T02:15:58;23.63;;;14.38;;
76833;SDS011;65793;42.678;23.332;2023-02-25T02:19:09;27.48;;;14.80;;
76833;SDS011;65793;42.678;23.332;2023-02-25T02:22:21;21.40;;;13.20;;
76833;SDS011;65793;42.678;23.332;2023-02-25T02:25:35;24.10;;;14.75;;
76833;SDS011;65793;42.678;23.332;2023-02-25T02:29:14;25.85;;;14.15;;
76833;SDS011;65793;42.678;23.332;2023-02-25T02:32:50;25.20;;;15.70;;
76833;SDS011;65793;42.678;23.332;2023-02-25T02:35:59;22.85;;;14.05;;
76833;SDS011;65793;42.678;23.332;2023-02-25T02:39:07;26.48;;;14.50;;
76833;SDS011;65793;42.678;23.332;2023-02-25T02:42:15;27.25;;;15.80;;
76833;SDS011;65793;42.678;23.332;2023-02-25T02:45:26;22.45;;;14.65;;
76833;SDS011;65793;42.678;23.332;2023-02-25T02:48:33;24.15;;;14.93;;
76833;SDS011;65793;42.678;23.332;2023-02-25T02:51:42;23.08;;;12.63;;
76833;SDS011;65793;42.678;23.332;2023-02-25T02:54:47;24.63;;;15.65;;
76833;SDS011;65793;42.678;23.332;2023-02-25T02:57:53;18.65;;;12.93;;
76833;SDS011;65793;42.678;23.332;2023-02-25T03:00:58;23.17;;;14.63;;
76833;SDS011;65793;42.678;23.332;2023-02-25T03:04:05;28.88;;;16.45;;
76833;SDS011;65793;42.678;23.332;2023-02-25T03:07:09;24.00;;;14.50;;
76833;SDS011;65793;42.678;23.332;2023-02-25T03:10:14;21.35;;;15.65;;
76833;SDS011;65793;42.678;23.332;2023-02-25T03:13:18;23.10;;;13.50;;
76833;SDS011;65793;42.678;23.332;2023-02-25T03:16:20;20.20;;;13.85;;
76833;SDS011;65793;42.678;23.332;2023-02-25T03:19:26;22.67;;;14.82;;
76833;SDS011;65793;42.678;23.332;2023-02-25T03:22:32;20.42;;;14.45;;
76833;SDS011;65793;42.678;23.332;2023-02-25T03:25:37;23.65;;;15.82;;
76833;SDS011;65793;42.678;23.332;2023-02-25T03:28:42;24.65;;;14.75;;
76833;SDS011;65793;42.678;23.332;2023-02-25T03:31:45;22.10;;;15.10;;
76833;SDS011;65793;42.678;23.332;2023-02-25T03:34:50;22.17;;;15.18;;
76833;SDS011;65793;42.678;23.332;2023-02-25T03:40:58;22.42;;;16.00;;
76833;SDS011;65793;42.678;23.332;2023-02-25T03:44:04;24.73;;;16.15;;
76833;SDS011;65793;42.678;23.332;2023-02-25T03:47:08;20.13;;;13.88;;
76833;SDS011;65793;42.678;23.332;2023-02-25T03:50:13;29.80;;;15.37;;
76833;SDS011;65793;42.678;23.332;2023-02-25T03:53:18;28.73;;;16.30;;
76833;SDS011;65793;42.678;23.332;2023-02-25T03:56:19;25.00;;;14.82;;
76833;SDS011;65793;42.678;23.332;2023-02-25T03:59:20;28.17;;;16.52;;
76833;SDS011;65793;42.678;23.332;2023-02-25T04:02:20;22.02;;;16.10;;
76833;SDS011;65793;42.678;23.332;2023-02-25T04:05:25;21.27;;;14.57;;
76833;SDS011;65793;42.678;23.332;2023-02-25T04:08:25;19.70;;;13.68;;
76833;SDS011;65793;42.678;23.332;2023-02-25T04:11:26;26.10;;;14.10;;
76833;SDS011;65793;42.678;23.332;2023-02-25T04:14:26;26.02;;;16.75;;
76833;SDS011;65793;42.678;23.332;2023-02-25T04:17:27;26.20;;;15.73;;
76833;SDS011;65793;42.678;23.332;2023-02-25T04:20:29;26.85;;;15.55;;
76833;SDS011;65793;42.678;23.332;2023-02-25T04:23:30;26.35;;;15.73;;
76833;SDS011;65793;42.678;23.332;2023-02-25T04:26:30;28.00;;;15.20;;
76833;SDS011;65793;42.678;23.332;2023-02-25T04:29:31;25.88;;;16.83;;
76833;SDS011;65793;42.678;23.332;2023-02-25T04:32:32;30.15;;;17.75;;
76833;SDS011;65793;42.678;23.332;2023-02-25T04:35:33;25.52;;;16.73;;
76833;SDS011;65793;42.678;23.332;2023-02-25T04:38:34;22.55;;;16.00;;
76833;SDS011;65793;42.678;23.332;2023-02-25T04:41:35;27.92;;;15.68;;
76833;SDS011;65793;42.678;23.332;2023-02-25T04:44:35;24.80;;;17.05;;
76833;SDS011;65793;42.678;23.332;2023-02-25T04:47:36;22.30;;;16.05;;
76833;SDS011;65793;42.678;23.332;2023-02-25T04:50:38;24.00;;;15.32;;
76833;SDS011;65793;42.678;23.332;2023-02-25T04:53:39;31.30;;;16.77;;
76833;SDS011;65793;42.678;23.332;2023-02-25T04:56:39;23.90;;;14.43;;
76833;SDS011;65793;42.678;23.332;2023-02-25T04:59:40;19.65;;;13.55;;
76833;SDS011;65793;42.678;23.332;2023-02-25T05:02:41;27.13;;;16.45;;
76833;SDS011;65793;42.678;23.332;2023-02-25T05:05:43;20.90;;;15.63;;
76833;SDS011;65793;42.678;23.332;2023-02-25T05:08:43;22.80;;;13.38;;
76833;SDS011;65793;42.678;23.332;2023-02-25T05:11:44;32.13;;;15.15;;
76833;SDS011;65793;42.678;23.332;2023-02-25T05:14:44;24.20;;;14.45;;
76833;SDS011;65793;42.678;23.332;2023-02-25T05:17:45;23.13;;;15.32;;
76833;SDS011;65793;42.678;23.332;2023-02-25T05:20:47;19.48;;;13.30;;
76833;SDS011;65793;42.678;23.332;2023-02-25T05:23:48;25.90;;;16.33;;
76833;SDS011;65793;42.678;23.332;2023-02-25T05:26:50;28.73;;;16.35;;
76833;SDS011;65793;42.678;23.332;2023-02-25T05:29:51;24.80;;;14.43;;
76833;SDS011;65793;42.678;23.332;2023-02-25T05:32:51;28.40;;;18.67;;
76833;SDS011;65793;42.678;23.332;2023-02-25T05:35:53;27.85;;;19.50;;
76833;SDS011;65793;42.678;23.332;2023-02-25T05:38:54;36.83;;;20.50;;
76833;SDS011;65793;42.678;23.332;2023-02-25T05:41:56;29.67;;;19.58;;
76833;SDS011;65793;42.678;23.332;2023-02-25T05:44:57;28.70;;;16.95;;
76833;SDS011;65793;42.678;23.332;2023-02-25T05:47:57;32.67;;;17.95;;
76833;SDS011;65793;42.678;23.332;2023-02-25T05:51:00;31.02;;;16.60;;
76833;SDS011;65793;42.678;23.332;2023-02-25T05:54:02;32.10;;;19.02;;
76833;SDS011;65793;42.678;23.332;2023-02-25T05:57:03;28.75;;;14.43;;
76833;SDS011;65793;42.678;23.332;2023-02-25T06:00:04;31.65;;;20.67;;
76833;SDS011;65793;42.678;23.332;2023-02-25T06:03:11;26.33;;;18.85;;
76833;SDS011;65793;42.678;23.332;2023-02-25T23:09:12;15.15;;;3.80;;
76833;SDS011;65793;42.678;23.332;2023-02-25T23:12:13;19.10;;;5.67;;
76833;SDS011;65793;42.678;23.332;2023-02-25T23:15:14;9.60;;;4.45;;
76833;SDS011;65793;42.678;23.332;2023-02-25T23:18:15;11.25;;;4.47;;
76833;SDS011;65793;42.678;23.332;2023-02-25T23:21:16;8.52;;;4.32;;
76833;SDS011;65793;42.678;23.332;2023-02-25T23:24:18;11.70;;;4.38;;
76833;SDS011;65793;42.678;23.332;2023-02-25T23:27:19;10.00;;;4.22;;
76833;SDS011;65793;42.678;23.332;2023-02-25T23:30:20;28.67;;;6.72;;
76833;SDS011;65793;42.678;23.332;2023-02-25T23:33:20;9.98;;;5.35;;
76833;SDS011;65793;42.678;23.332;2023-02-25T23:36:21;13.40;;;5.40;;
76833;SDS011;65793;42.678;23.332;2023-02-25T23:39:23;11.65;;;4.00;;
76833;SDS011;65793;42.678;23.332;2023-02-25T23:42:24;15.32;;;4.82;;
76833;SDS011;65793;42.678;23.332;2023-02-25T23:45:25;13.48;;;4.85;;
76833;SDS011;65793;42.678;23.332;2023-02-25T23:48:25;11.40;;;4.20;;
76833;SDS011;65793;42.678;23.332;2023-02-25T23:51:26;16.67;;;4.28;;
76833;SDS011;65793;42.678;23.332;2023-02-25T23:54:28;10.70;;;4.00;;
76833;SDS011;65793;42.678;23.332;2023-02-25T23:57:29;10.23;;;4.78;;
